createdAt,value
2022-12-23T00:00:23.650Z,9.40
2022-12-23T00:01:23.675Z,8.50
2022-12-23T00:02:23.750Z,9.10
2022-12-23T00:03:23.757Z,9.10
2022-12-23T00:04:23.667Z,9.90
2022-12-23T00:05:23.579Z,9.50
2022-12-23T00:06:23.566Z,9.20
2022-12-23T00:07:23.613Z,9.30
2022-12-23T00:08:23.665Z,9.30
2022-12-23T00:09:23.578Z,9.20
2022-12-23T00:10:23.543Z,9.90
2022-12-23T00:11:23.565Z,9.00
2022-12-23T00:12:23.504Z,9.90
2022-12-23T00:13:23.510Z,9.70
2022-12-23T00:14:23.527Z,9.70
2022-12-23T00:15:23.469Z,9.60
2022-12-23T00:16:23.585Z,9.50
2022-12-23T00:17:23.599Z,9.10
2022-12-23T00:18:23.490Z,9.30
2022-12-23T00:19:23.436Z,9.60
2022-12-23T00:20:23.426Z,8.60
2022-12-23T00:21:23.437Z,9.00
2022-12-23T00:22:23.388Z,7.70
2022-12-23T00:23:23.392Z,8.70
2022-12-23T00:24:23.412Z,6.60
2022-12-23T00:25:23.379Z,7.40
2022-12-23T00:26:23.349Z,7.20
2022-12-23T00:27:23.350Z,7.00
2022-12-23T00:28:23.337Z,7.30
2022-12-23T00:29:23.346Z,6.90
2022-12-23T00:30:23.340Z,7.20
2022-12-23T00:31:23.328Z,7.40
2022-12-23T00:32:23.302Z,6.90
2022-12-23T00:33:23.294Z,7.80
2022-12-23T00:34:23.299Z,7.80
2022-12-23T00:35:23.259Z,7.00
2022-12-23T00:36:23.379Z,7.80
2022-12-23T00:37:23.245Z,7.60
2022-12-23T00:38:23.220Z,6.90
2022-12-23T00:39:23.319Z,6.80
2022-12-23T00:40:23.217Z,7.20
2022-12-23T00:41:23.216Z,7.20
2022-12-23T00:42:23.203Z,7.40
2022-12-23T00:43:23.213Z,7.70
2022-12-23T00:44:23.216Z,7.00
2022-12-23T00:45:23.176Z,7.50
2022-12-23T00:46:23.197Z,7.70
2022-12-23T00:47:23.144Z,7.30
2022-12-23T00:48:23.119Z,6.10
2022-12-23T00:49:23.129Z,7.80
2022-12-23T00:50:23.131Z,7.10
2022-12-23T00:51:23.096Z,6.80
2022-12-23T00:52:23.077Z,7.70
2022-12-23T00:53:23.066Z,7.70
2022-12-23T00:54:23.048Z,7.80
2022-12-23T00:55:23.101Z,7.80
2022-12-23T00:56:23.068Z,7.50
2022-12-23T00:57:23.018Z,7.40
2022-12-23T00:58:23.051Z,7.20
2022-12-23T00:59:23.021Z,7.20
2022-12-23T01:00:23.047Z,7.10
2022-12-23T01:01:23.047Z,8.50
2022-12-23T01:02:23.207Z,8.30
2022-12-23T01:03:23.105Z,8.80
2022-12-23T01:04:22.949Z,8.20
2022-12-23T01:05:22.972Z,8.50
2022-12-23T01:06:22.926Z,9.00
2022-12-23T01:07:22.965Z,8.30
2022-12-23T01:08:22.908Z,8.80
2022-12-23T01:09:22.899Z,9.10
2022-12-23T01:10:22.920Z,9.90
2022-12-23T01:11:22.884Z,8.60
2022-12-23T01:12:22.914Z,9.50
2022-12-23T01:13:22.867Z,8.70
2022-12-23T01:14:22.865Z,8.70
2022-12-23T01:15:22.838Z,8.80
2022-12-23T01:16:22.877Z,9.00
2022-12-23T01:17:22.943Z,9.30
2022-12-23T01:18:22.841Z,8.20
2022-12-23T01:19:22.805Z,9.20
2022-12-23T01:20:22.848Z,8.50
2022-12-23T01:21:22.784Z,9.10
2022-12-23T01:22:22.767Z,10.30
2022-12-23T01:23:22.756Z,8.90
2022-12-23T01:24:22.753Z,9.90
2022-12-23T01:25:22.727Z,9.90
2022-12-23T01:26:22.783Z,9.40
2022-12-23T01:27:22.718Z,9.40
2022-12-23T01:28:22.715Z,9.20
2022-12-23T01:29:22.707Z,9.40
2022-12-23T01:30:22.696Z,9.30
2022-12-23T01:31:22.727Z,9.00
2022-12-23T01:32:22.737Z,9.10
2022-12-23T01:33:22.658Z,9.90
2022-12-23T01:34:22.654Z,8.70
2022-12-23T01:35:22.682Z,8.50
2022-12-23T01:36:22.656Z,8.70
2022-12-23T01:37:22.688Z,9.20
2022-12-23T01:38:22.684Z,8.80
2022-12-23T01:39:22.625Z,9.00
2022-12-23T01:40:22.609Z,9.70
2022-12-23T01:41:22.567Z,9.20
2022-12-23T01:42:22.574Z,9.40
2022-12-23T01:43:22.643Z,8.40
2022-12-23T01:44:22.547Z,9.70
2022-12-23T01:45:22.542Z,10.70
2022-12-23T01:46:22.578Z,10.50
2022-12-23T01:47:22.505Z,11.30
2022-12-23T01:48:22.566Z,11.80
2022-12-23T01:49:22.473Z,10.40
2022-12-23T01:50:22.468Z,11.80
2022-12-23T01:51:22.455Z,12.30
2022-12-23T01:52:22.487Z,11.80
2022-12-23T01:53:22.469Z,11.40
2022-12-23T01:54:22.447Z,13.10
2022-12-23T01:55:22.406Z,12.70
2022-12-23T01:56:22.393Z,11.40
2022-12-23T01:57:22.405Z,12.20
2022-12-23T01:58:22.387Z,12.40
2022-12-23T01:59:22.365Z,13.70
2022-12-23T02:00:22.394Z,13.30
2022-12-23T02:01:22.381Z,14.20
2022-12-23T02:02:22.507Z,13.90
2022-12-23T02:03:22.440Z,15.00
2022-12-23T02:04:22.328Z,15.10
2022-12-23T02:05:22.299Z,14.20
2022-12-23T02:06:22.566Z,15.60
2022-12-23T02:07:22.283Z,15.30
2022-12-23T02:08:22.305Z,15.10
2022-12-23T02:09:22.272Z,14.50
2022-12-23T02:10:22.244Z,14.90
2022-12-23T02:11:22.241Z,14.90
2022-12-23T02:12:22.270Z,16.30
2022-12-23T02:13:22.218Z,16.70
2022-12-23T02:14:22.193Z,17.10
2022-12-23T02:15:22.240Z,16.70
2022-12-23T02:16:22.192Z,15.60
2022-12-23T02:17:22.173Z,17.30
2022-12-23T02:18:23.748Z,17.30
2022-12-23T02:19:22.162Z,15.90
2022-12-23T02:20:22.200Z,17.20
2022-12-23T02:21:22.183Z,17.50
2022-12-23T02:22:22.154Z,16.70
2022-12-23T02:23:22.127Z,17.70
2022-12-23T02:24:22.103Z,18.50
2022-12-23T02:25:22.114Z,18.00
2022-12-23T02:26:22.084Z,18.50
2022-12-23T02:27:22.071Z,18.80
2022-12-23T02:28:22.053Z,18.60
2022-12-23T02:29:22.042Z,18.60
2022-12-23T02:30:22.073Z,18.40
2022-12-23T02:31:22.079Z,20.00
2022-12-23T02:32:22.003Z,18.30
2022-12-23T02:33:22.038Z,19.20
2022-12-23T02:34:21.993Z,18.60
2022-12-23T02:35:21.992Z,18.80
2022-12-23T02:36:22.004Z,19.20
2022-12-23T02:37:22.006Z,19.20
2022-12-23T02:38:21.942Z,19.80
2022-12-23T02:39:21.951Z,19.70
2022-12-23T02:40:21.922Z,18.40
2022-12-23T02:41:21.927Z,19.60
2022-12-23T02:42:21.932Z,20.20
2022-12-23T02:43:21.893Z,20.90
2022-12-23T02:44:21.882Z,21.00
2022-12-23T02:45:21.879Z,18.10
2022-12-23T02:46:22.015Z,19.30
2022-12-23T02:47:21.868Z,19.80
2022-12-23T02:48:21.882Z,20.30
2022-12-23T02:49:21.857Z,20.60
2022-12-23T02:50:21.851Z,19.60
2022-12-23T02:51:21.844Z,18.90
2022-12-23T02:52:21.884Z,18.50
2022-12-23T02:53:21.781Z,20.30
2022-12-23T02:54:21.800Z,17.70
2022-12-23T02:55:21.798Z,19.50
2022-12-23T02:56:21.753Z,20.70
2022-12-23T02:57:21.748Z,19.60
2022-12-23T02:58:21.720Z,19.30
2022-12-23T02:59:21.752Z,19.60
2022-12-23T03:00:21.720Z,17.80
2022-12-23T03:01:22.125Z,17.30
2022-12-23T03:02:21.939Z,19.00
2022-12-23T03:03:21.852Z,16.40
2022-12-23T03:04:21.683Z,18.10
2022-12-23T03:05:21.666Z,18.70
2022-12-23T03:06:21.641Z,18.40
2022-12-23T03:07:21.628Z,17.40
2022-12-23T03:08:21.691Z,18.40
2022-12-23T03:09:21.640Z,16.80
2022-12-23T03:10:21.600Z,18.10
2022-12-23T03:11:21.598Z,18.30
2022-12-23T03:12:21.588Z,19.50
2022-12-23T03:13:21.585Z,19.50
2022-12-23T03:14:21.587Z,19.50
2022-12-23T03:15:21.549Z,19.20
2022-12-23T03:16:21.628Z,19.30
2022-12-23T03:17:21.535Z,20.30
2022-12-23T03:18:21.508Z,19.30
2022-12-23T03:19:21.499Z,18.80
2022-12-23T03:20:21.513Z,21.00
2022-12-23T03:21:21.479Z,18.80
2022-12-23T03:22:21.612Z,20.20
2022-12-23T03:23:21.472Z,19.20
2022-12-23T03:24:21.446Z,19.30
2022-12-23T03:25:21.451Z,19.10
2022-12-23T03:26:21.426Z,19.50
2022-12-23T03:27:21.417Z,18.90
2022-12-23T03:28:21.444Z,17.80
2022-12-23T03:29:21.401Z,17.00
2022-12-23T03:30:21.432Z,18.10
2022-12-23T03:31:21.490Z,18.50
2022-12-23T03:32:21.359Z,17.60
2022-12-23T03:33:21.362Z,18.00
2022-12-23T03:34:21.453Z,16.40
2022-12-23T03:35:21.408Z,17.30
2022-12-23T03:36:21.376Z,16.50
2022-12-23T03:37:21.328Z,17.70
2022-12-23T03:38:21.298Z,17.20
2022-12-23T03:39:21.279Z,16.90
2022-12-23T03:40:21.285Z,15.90
2022-12-23T03:41:21.256Z,16.00
2022-12-23T03:42:21.256Z,16.00
2022-12-23T03:43:21.281Z,16.50
2022-12-23T03:44:21.250Z,15.60
2022-12-23T03:46:22.264Z,15.30
2022-12-23T03:47:21.204Z,15.00
2022-12-23T03:48:21.216Z,16.90
2022-12-23T03:49:21.206Z,16.50
2022-12-23T03:50:21.188Z,16.40
2022-12-23T03:51:21.157Z,15.40
2022-12-23T03:52:21.948Z,15.30
2022-12-23T03:53:21.143Z,14.70
2022-12-23T03:54:21.165Z,14.40
2022-12-23T03:55:21.119Z,16.60
2022-12-23T03:56:21.122Z,15.30
2022-12-23T03:57:21.087Z,15.90
2022-12-23T03:58:21.116Z,16.00
2022-12-23T03:59:21.127Z,16.40
2022-12-23T04:00:21.068Z,16.20
2022-12-23T04:01:21.110Z,16.90
2022-12-23T04:02:21.215Z,16.50
2022-12-23T04:03:21.216Z,17.00
2022-12-23T04:04:21.130Z,15.40
2022-12-23T04:05:21.009Z,16.80
2022-12-23T04:06:21.002Z,17.80
2022-12-23T04:07:21.018Z,17.50
2022-12-23T04:08:21.091Z,18.20
2022-12-23T04:09:22.417Z,16.00
2022-12-23T04:10:20.968Z,17.90
2022-12-23T04:11:20.955Z,17.90
2022-12-23T04:12:20.937Z,18.60
2022-12-23T04:13:21.231Z,17.20
2022-12-23T04:14:20.973Z,16.80
2022-12-23T04:15:20.914Z,17.60
2022-12-23T04:16:21.005Z,17.60
2022-12-23T04:17:20.907Z,18.80
2022-12-23T04:18:20.871Z,20.10
2022-12-23T04:19:20.893Z,17.60
2022-12-23T04:20:20.906Z,17.40
2022-12-23T04:21:20.887Z,18.00
2022-12-23T04:22:20.833Z,19.50
2022-12-23T04:23:20.837Z,18.60
2022-12-23T04:24:20.987Z,18.50
2022-12-23T04:25:20.804Z,19.00
2022-12-23T04:26:20.825Z,19.40
2022-12-23T04:27:20.831Z,18.40
2022-12-23T04:28:20.759Z,15.90
2022-12-23T04:29:20.784Z,17.80
2022-12-23T04:30:20.795Z,18.30
2022-12-23T04:31:20.796Z,17.60
2022-12-23T04:32:20.767Z,18.00
2022-12-23T04:33:30.939Z,18.90
2022-12-23T04:34:20.710Z,20.30
2022-12-23T04:35:20.729Z,19.30
2022-12-23T04:36:20.679Z,19.30
2022-12-23T04:37:20.667Z,21.30
2022-12-23T04:38:20.706Z,21.30
2022-12-23T04:39:20.669Z,20.30
2022-12-23T04:40:20.628Z,21.20
2022-12-23T04:41:20.650Z,21.60
2022-12-23T04:42:20.626Z,22.50
2022-12-23T04:43:20.684Z,24.50
2022-12-23T04:44:20.598Z,22.90
2022-12-23T04:45:20.580Z,23.50
2022-12-23T04:46:20.678Z,23.60
2022-12-23T04:47:20.562Z,23.50
2022-12-23T04:48:20.559Z,23.00
2022-12-23T04:49:20.546Z,22.40
2022-12-23T04:50:20.568Z,22.60
2022-12-23T04:51:20.537Z,22.60
2022-12-23T04:52:20.530Z,20.80
2022-12-23T04:53:20.504Z,21.20
2022-12-23T04:54:20.510Z,21.00
2022-12-23T04:55:20.485Z,20.70
2022-12-23T04:56:20.649Z,19.30
2022-12-23T04:57:20.459Z,19.80
2022-12-23T04:58:20.446Z,19.70
2022-12-23T04:59:20.478Z,20.00
2022-12-23T05:00:20.509Z,19.20
2022-12-23T05:01:20.614Z,19.50
2022-12-23T05:02:20.469Z,19.60
2022-12-23T05:03:20.523Z,19.50
2022-12-23T05:04:20.383Z,20.70
2022-12-23T05:05:20.377Z,21.60
2022-12-23T05:06:20.436Z,19.80
2022-12-23T05:07:20.372Z,20.10
2022-12-23T05:08:20.346Z,19.40
2022-12-23T05:09:20.341Z,19.60
2022-12-23T05:10:20.316Z,19.90
2022-12-23T05:11:20.321Z,20.30
2022-12-23T05:12:20.407Z,20.00
2022-12-23T05:13:20.322Z,21.20
2022-12-23T05:14:20.272Z,21.50
2022-12-23T05:15:20.266Z,20.50
2022-12-23T05:16:20.293Z,20.10
2022-12-23T05:17:20.237Z,21.70
2022-12-23T05:18:20.276Z,20.70
2022-12-23T05:19:20.236Z,21.50
2022-12-23T05:20:20.216Z,22.00
2022-12-23T05:21:20.216Z,21.10
2022-12-23T05:22:20.181Z,22.00
2022-12-23T05:23:20.199Z,24.40
2022-12-23T05:24:20.156Z,22.60
2022-12-23T05:25:20.180Z,21.90
2022-12-23T05:26:20.228Z,22.00
2022-12-23T05:27:20.128Z,22.40
2022-12-23T05:28:20.121Z,21.70
2022-12-23T05:29:20.107Z,20.40
2022-12-23T05:30:20.098Z,19.30
2022-12-23T05:31:20.196Z,20.60
2022-12-23T05:32:20.150Z,20.70
2022-12-23T05:33:20.098Z,19.90
2022-12-23T05:34:20.188Z,20.60
2022-12-23T05:35:20.044Z,20.60
2022-12-23T05:36:20.029Z,19.60
2022-12-23T05:37:20.087Z,21.20
2022-12-23T05:38:20.012Z,20.80
2022-12-23T05:39:19.996Z,20.30
2022-12-23T05:40:23.863Z,18.70
2022-12-23T05:41:21.015Z,18.80
2022-12-23T05:42:19.973Z,19.70
2022-12-23T05:43:20.014Z,19.30
2022-12-23T05:44:19.958Z,18.50
2022-12-23T05:45:19.953Z,19.20
2022-12-23T05:46:25.940Z,19.60
2022-12-23T05:47:20.926Z,17.70
2022-12-23T05:48:19.904Z,17.00
2022-12-23T05:49:19.912Z,16.80
2022-12-23T05:50:19.874Z,17.40
2022-12-23T05:51:19.894Z,17.00
2022-12-23T05:52:19.856Z,16.40
2022-12-23T05:53:19.863Z,17.20
2022-12-23T05:54:19.874Z,17.10
2022-12-23T05:55:19.870Z,17.00
2022-12-23T05:56:19.811Z,15.90
2022-12-23T05:57:19.841Z,16.50
2022-12-23T05:58:19.829Z,16.20
2022-12-23T05:59:19.774Z,15.30
2022-12-23T06:00:19.772Z,14.80
2022-12-23T06:01:19.781Z,16.10
2022-12-23T06:02:19.885Z,15.20
2022-12-23T06:03:19.960Z,15.90
2022-12-23T06:04:19.800Z,15.70
2022-12-23T06:05:19.770Z,15.60
2022-12-23T06:06:19.714Z,14.70
2022-12-23T06:07:19.707Z,16.20
2022-12-23T06:08:19.718Z,14.80
2022-12-23T06:09:19.696Z,15.70
2022-12-23T06:10:19.667Z,15.30
2022-12-23T06:11:19.694Z,14.00
2022-12-23T06:12:19.671Z,15.50
2022-12-23T06:13:19.651Z,14.20
2022-12-23T06:14:23.912Z,14.60
2022-12-23T06:15:20.644Z,14.50
2022-12-23T06:16:19.670Z,15.40
2022-12-23T06:17:19.593Z,15.70
2022-12-23T06:18:19.605Z,15.00
2022-12-23T06:19:19.578Z,14.70
2022-12-23T06:20:20.940Z,13.50
2022-12-23T06:21:19.571Z,14.80
2022-12-23T06:22:19.572Z,14.80
2022-12-23T06:23:19.559Z,14.90
2022-12-23T06:24:19.518Z,15.90
2022-12-23T06:25:19.503Z,15.20
2022-12-23T06:26:19.492Z,15.30
2022-12-23T06:27:19.506Z,15.30
2022-12-23T06:28:19.523Z,14.80
2022-12-23T06:29:19.467Z,15.30
2022-12-23T06:30:19.452Z,16.30
2022-12-23T06:31:19.515Z,17.00
2022-12-23T06:32:19.586Z,15.70
2022-12-23T06:33:19.413Z,16.70
2022-12-23T06:34:19.410Z,16.50
2022-12-23T06:35:19.387Z,17.10
2022-12-23T06:36:19.410Z,17.20
2022-12-23T06:37:19.413Z,16.70
2022-12-23T06:38:19.386Z,16.90
2022-12-23T06:39:19.377Z,16.10
2022-12-23T06:40:19.352Z,16.60
2022-12-23T06:41:19.385Z,17.00
2022-12-23T06:42:19.336Z,17.40
2022-12-23T06:43:19.352Z,17.40
2022-12-23T06:44:19.301Z,18.90
2022-12-23T06:45:19.296Z,17.30
2022-12-23T06:46:19.355Z,17.70
2022-12-23T06:47:19.263Z,19.30
2022-12-23T06:48:19.295Z,17.90
2022-12-23T06:49:19.289Z,18.90
2022-12-23T06:50:19.254Z,17.60
2022-12-23T06:51:19.252Z,16.70
2022-12-23T06:52:19.268Z,18.10
2022-12-23T06:53:19.205Z,17.50
2022-12-23T06:54:19.223Z,16.50
2022-12-23T06:55:19.183Z,16.00
2022-12-23T06:56:19.185Z,16.00
2022-12-23T06:57:19.191Z,16.20
2022-12-23T06:58:19.149Z,16.90
2022-12-23T06:59:19.289Z,17.40
2022-12-23T07:00:19.148Z,16.30
2022-12-23T07:01:19.238Z,16.50
2022-12-23T07:02:19.238Z,17.50
2022-12-23T07:03:19.136Z,18.20
2022-12-23T07:04:19.110Z,17.20
2022-12-23T07:05:19.081Z,17.80
2022-12-23T07:06:19.142Z,17.60
2022-12-23T07:07:19.089Z,18.10
2022-12-23T07:08:19.069Z,17.90
2022-12-23T07:09:19.035Z,18.50
2022-12-23T07:10:19.028Z,17.20
2022-12-23T07:11:19.053Z,19.40
2022-12-23T07:12:19.002Z,18.20
2022-12-23T07:13:18.993Z,18.80
2022-12-23T07:14:18.980Z,18.60
2022-12-23T07:15:22.264Z,18.70
2022-12-23T07:16:19.024Z,19.40
2022-12-23T07:17:18.988Z,18.20
2022-12-23T07:18:18.953Z,18.80
2022-12-23T07:19:18.925Z,18.60
2022-12-23T07:20:18.960Z,18.00
2022-12-23T07:21:28.318Z,18.20
2022-12-23T07:22:19.920Z,19.10
2022-12-23T07:23:18.921Z,16.90
2022-12-23T07:24:18.911Z,17.50
2022-12-23T07:25:18.885Z,18.60
2022-12-23T07:26:18.988Z,18.50
2022-12-23T07:27:18.878Z,18.60
2022-12-23T07:28:18.859Z,18.20
2022-12-23T07:29:18.819Z,18.70
2022-12-23T07:30:18.846Z,18.60
2022-12-23T07:31:18.816Z,17.90
2022-12-23T07:32:18.845Z,17.30
2022-12-23T07:33:18.769Z,17.20
2022-12-23T07:34:18.767Z,16.40
2022-12-23T07:35:18.770Z,16.20
2022-12-23T07:36:18.769Z,15.90
2022-12-23T07:37:18.750Z,16.50
2022-12-23T07:38:18.760Z,15.70
2022-12-23T07:39:18.705Z,15.90
2022-12-23T07:40:18.742Z,15.10
2022-12-23T07:41:18.715Z,15.60
2022-12-23T07:42:44.304Z,16.00
2022-12-23T07:43:19.736Z,17.60
2022-12-23T07:44:18.664Z,15.50
2022-12-23T07:45:18.648Z,16.20
2022-12-23T07:46:18.696Z,14.70
2022-12-23T07:47:18.651Z,13.90
2022-12-23T07:48:18.632Z,13.30
2022-12-23T07:49:19.261Z,13.60
2022-12-23T07:50:18.587Z,13.10
2022-12-23T07:51:18.602Z,13.70
2022-12-23T07:52:18.573Z,13.50
2022-12-23T07:53:18.610Z,14.60
2022-12-23T07:54:18.575Z,13.50
2022-12-23T07:55:18.566Z,13.50
2022-12-23T07:56:18.535Z,13.30
2022-12-23T07:57:18.591Z,13.10
2022-12-23T07:58:18.505Z,13.20
2022-12-23T07:59:18.516Z,11.50
2022-12-23T08:00:18.499Z,11.50
2022-12-23T08:01:18.583Z,10.60
2022-12-23T08:02:18.638Z,11.90
2022-12-23T08:03:18.681Z,11.60
2022-12-23T08:04:18.625Z,11.60
2022-12-23T08:05:18.545Z,11.20
2022-12-23T08:06:18.428Z,11.40
2022-12-23T08:07:18.477Z,11.30
2022-12-23T08:08:18.417Z,10.90
2022-12-23T08:09:18.416Z,10.10
2022-12-23T08:10:18.368Z,11.00
2022-12-23T08:11:18.486Z,10.40
2022-12-23T08:12:18.380Z,10.00
2022-12-23T08:13:18.349Z,9.30
2022-12-23T08:14:18.324Z,9.50
2022-12-23T08:15:18.354Z,9.50
2022-12-23T08:16:18.374Z,8.80
2022-12-23T08:17:18.456Z,8.70
2022-12-23T08:18:18.289Z,8.70
2022-12-23T08:19:18.286Z,9.60
2022-12-23T08:20:18.328Z,9.40
2022-12-23T08:21:18.260Z,9.80
2022-12-23T08:22:18.288Z,10.20
2022-12-23T08:23:24.439Z,10.70
2022-12-23T08:24:19.225Z,10.60
2022-12-23T08:25:18.263Z,11.10
2022-12-23T08:26:18.207Z,11.10
2022-12-23T08:27:18.205Z,12.00
2022-12-23T08:28:18.235Z,12.90
2022-12-23T08:29:18.170Z,13.50
2022-12-23T08:30:18.164Z,12.70
2022-12-23T08:31:18.304Z,12.80
2022-12-23T08:32:18.136Z,14.00
2022-12-23T08:33:18.136Z,14.10
2022-12-23T08:34:18.134Z,13.60
2022-12-23T08:35:18.107Z,13.60
2022-12-23T08:36:22.671Z,14.40
2022-12-23T08:37:19.164Z,14.40
2022-12-23T08:38:18.067Z,15.50
2022-12-23T08:39:18.088Z,16.80
2022-12-23T08:40:21.356Z,16.50
2022-12-23T08:41:18.033Z,18.10
2022-12-23T08:42:18.046Z,19.00
2022-12-23T08:43:18.027Z,19.90
2022-12-23T08:44:18.024Z,18.60
2022-12-23T08:45:18.001Z,20.10
2022-12-23T08:46:18.014Z,20.30
2022-12-23T08:47:18.014Z,21.20
2022-12-23T08:48:17.974Z,21.90
2022-12-23T08:49:17.988Z,19.80
2022-12-23T08:50:17.942Z,21.00
2022-12-23T08:51:17.956Z,21.30
2022-12-23T08:52:17.929Z,21.60
2022-12-23T08:53:17.974Z,21.60
2022-12-23T08:54:17.906Z,21.50
2022-12-23T08:55:17.894Z,21.40
2022-12-23T08:56:17.918Z,22.30
2022-12-23T08:57:17.905Z,21.70
2022-12-23T08:58:17.863Z,21.00
2022-12-23T08:59:19.514Z,21.90
2022-12-23T09:00:17.842Z,21.40
2022-12-23T09:01:17.835Z,21.80
2022-12-23T09:02:17.927Z,22.50
2022-12-23T09:03:17.881Z,22.10
2022-12-23T09:04:17.804Z,20.90
2022-12-23T09:05:17.784Z,25.70
2022-12-23T09:06:21.869Z,23.20
2022-12-23T09:07:18.793Z,27.90
2022-12-23T09:08:17.741Z,25.90
2022-12-23T09:09:17.752Z,22.00
2022-12-23T09:10:17.768Z,22.60
2022-12-23T09:11:17.723Z,24.70
2022-12-23T09:12:17.710Z,22.00
2022-12-23T09:13:26.355Z,22.30
2022-12-23T09:14:18.733Z,21.60
2022-12-23T09:15:17.702Z,22.80
2022-12-23T09:16:17.794Z,21.80
2022-12-23T09:17:17.675Z,22.50
2022-12-23T09:18:17.666Z,22.10
2022-12-23T09:19:17.632Z,22.80
2022-12-23T09:20:17.681Z,21.50
2022-12-23T09:21:17.643Z,23.20
2022-12-23T09:22:17.608Z,23.50
2022-12-23T09:23:17.630Z,21.60
2022-12-23T09:24:17.573Z,22.70
2022-12-23T09:25:17.573Z,21.00
2022-12-23T09:26:17.552Z,21.30
2022-12-23T09:27:17.581Z,22.10
2022-12-23T09:28:17.529Z,20.90
2022-12-23T09:29:17.591Z,19.70
2022-12-23T09:30:17.526Z,19.80
2022-12-23T09:31:17.573Z,19.90
2022-12-23T09:32:17.492Z,19.90
2022-12-23T09:33:17.497Z,17.40
2022-12-23T09:34:17.473Z,18.90
2022-12-23T09:35:17.539Z,18.60
2022-12-23T09:36:17.462Z,18.00
2022-12-23T09:37:17.500Z,18.20
2022-12-23T09:38:17.437Z,17.30
2022-12-23T09:39:17.421Z,17.00
2022-12-23T09:40:17.416Z,16.70
2022-12-23T09:41:17.426Z,17.40
2022-12-23T09:42:17.396Z,17.10
2022-12-23T09:43:17.384Z,18.10
2022-12-23T09:44:17.376Z,16.10
2022-12-23T09:45:17.441Z,16.40
2022-12-23T09:46:17.406Z,17.40
2022-12-23T09:47:17.381Z,17.20
2022-12-23T09:48:17.332Z,17.80
2022-12-23T09:49:17.313Z,17.00
2022-12-23T09:50:17.313Z,17.50
2022-12-23T09:51:17.514Z,17.50
2022-12-23T09:52:17.290Z,18.10
2022-12-23T09:53:17.277Z,18.60
2022-12-23T09:54:17.746Z,18.70
2022-12-23T09:55:17.242Z,19.50
2022-12-23T09:56:17.259Z,20.90
2022-12-23T09:57:18.992Z,19.90
2022-12-23T09:58:19.149Z,20.10
2022-12-23T09:59:17.204Z,20.00
2022-12-23T10:00:17.242Z,20.20
2022-12-23T10:01:17.286Z,19.40
2022-12-23T10:02:20.472Z,20.10
2022-12-23T10:03:17.515Z,20.00
2022-12-23T10:04:17.224Z,20.00
2022-12-23T10:05:17.154Z,19.80
2022-12-23T10:06:17.124Z,20.10
2022-12-23T10:07:17.123Z,20.20
2022-12-23T10:08:17.529Z,19.30
2022-12-23T10:09:17.107Z,20.80
2022-12-23T10:10:17.098Z,19.30
2022-12-23T10:11:17.096Z,19.30
2022-12-23T10:12:19.703Z,19.80
2022-12-23T10:13:18.095Z,18.70
2022-12-23T10:14:17.052Z,19.80
2022-12-23T10:15:17.081Z,19.50
2022-12-23T10:16:17.089Z,19.90
2022-12-23T10:17:17.059Z,27.30
2022-12-23T10:18:16.998Z,20.20
2022-12-23T10:19:17.003Z,19.90
2022-12-23T10:20:16.990Z,19.10
2022-12-23T10:21:16.977Z,18.40
2022-12-23T10:22:17.174Z,19.60
2022-12-23T10:23:16.992Z,20.30
2022-12-23T10:24:16.932Z,19.80
2022-12-23T10:25:16.955Z,19.20
2022-12-23T10:26:16.923Z,18.80
2022-12-23T10:27:16.947Z,19.20
2022-12-23T10:28:16.925Z,20.70
2022-12-23T10:29:19.443Z,19.00
2022-12-23T10:30:42.426Z,18.60
2022-12-23T10:31:39.315Z,18.30
2022-12-23T10:32:17.917Z,18.80
2022-12-23T10:33:16.856Z,19.00
2022-12-23T10:35:28.935Z,17.90
2022-12-23T10:36:28.990Z,18.10
2022-12-23T10:37:28.900Z,17.80
2022-12-23T10:38:28.885Z,18.50
2022-12-23T10:39:28.876Z,17.60
2022-12-23T10:40:28.871Z,19.00
2022-12-23T10:41:28.886Z,19.00
2022-12-23T10:42:28.844Z,17.90
2022-12-23T10:43:28.849Z,19.80
2022-12-23T10:44:28.837Z,20.30
2022-12-23T10:45:28.863Z,17.70
2022-12-23T10:46:28.850Z,17.30
2022-12-23T10:47:28.799Z,17.40
2022-12-23T10:48:28.799Z,18.20
2022-12-23T10:49:28.764Z,18.90
2022-12-23T10:50:28.950Z,18.40
2022-12-23T10:51:28.785Z,17.60
2022-12-23T10:52:28.749Z,16.60
2022-12-23T10:53:31.376Z,18.60
2022-12-23T10:54:28.767Z,17.90
2022-12-23T10:55:40.898Z,16.80
2022-12-23T10:56:28.686Z,18.40
2022-12-23T10:57:28.687Z,17.30
2022-12-23T10:58:28.722Z,17.20
2022-12-23T10:59:28.665Z,18.00
2022-12-23T11:00:32.467Z,18.40
2022-12-23T11:01:28.690Z,17.80
2022-12-23T11:02:28.830Z,17.70
2022-12-23T11:03:28.810Z,17.70
2022-12-23T11:04:28.626Z,17.90
2022-12-23T11:05:28.628Z,17.80
2022-12-23T11:06:34.863Z,17.10
2022-12-23T11:07:46.224Z,17.70
2022-12-23T11:08:29.850Z,17.40
2022-12-23T11:09:28.555Z,16.10
2022-12-23T11:10:28.553Z,17.30
2022-12-23T11:11:28.528Z,17.70
2022-12-23T11:12:28.527Z,17.40
2022-12-23T11:13:28.509Z,17.40
2022-12-23T11:14:28.588Z,17.90
2022-12-23T11:15:28.494Z,17.40
2022-12-23T11:16:28.567Z,17.30
2022-12-23T11:17:28.486Z,18.70
2022-12-23T11:18:28.773Z,18.10
2022-12-23T11:19:28.455Z,17.00
2022-12-23T11:20:28.432Z,17.20
2022-12-23T11:21:28.445Z,18.10
2022-12-23T11:22:28.422Z,17.50
2022-12-23T11:23:28.490Z,17.10
2022-12-23T11:24:28.452Z,16.90
2022-12-23T11:25:28.407Z,19.20
2022-12-23T11:26:28.383Z,18.30
2022-12-23T11:27:28.366Z,19.60
2022-12-23T11:28:28.442Z,19.80
2022-12-23T11:29:28.403Z,18.80
2022-12-23T11:30:28.338Z,19.20
2022-12-23T11:31:28.392Z,18.70
2022-12-23T11:32:28.306Z,18.70
2022-12-23T11:33:28.367Z,17.90
2022-12-23T11:34:32.441Z,17.70
2022-12-23T11:35:28.368Z,16.70
2022-12-23T11:36:28.254Z,16.40
2022-12-23T11:37:28.260Z,16.80
2022-12-23T11:38:28.232Z,16.50
2022-12-23T11:39:28.242Z,16.20
2022-12-23T11:40:28.236Z,16.60
2022-12-23T11:41:28.266Z,15.60
2022-12-23T11:42:28.225Z,15.00
2022-12-23T11:43:28.227Z,15.40
2022-12-23T11:44:28.189Z,15.30
2022-12-23T11:45:28.229Z,15.10
2022-12-23T11:46:28.224Z,16.20
2022-12-23T11:47:28.284Z,15.10
2022-12-23T11:48:28.137Z,15.40
2022-12-23T11:49:28.132Z,16.40
2022-12-23T11:50:28.140Z,15.10
2022-12-23T11:51:28.161Z,14.40
2022-12-23T11:52:28.737Z,14.50
2022-12-23T11:53:28.075Z,14.30
2022-12-23T11:54:28.072Z,14.10
2022-12-23T11:55:28.049Z,14.60
2022-12-23T11:56:28.071Z,14.80
2022-12-23T11:57:28.073Z,14.40
2022-12-23T11:58:28.040Z,13.50
2022-12-23T11:59:28.038Z,13.70
2022-12-23T12:00:28.012Z,14.30
2022-12-23T12:01:28.023Z,14.20
2022-12-23T12:02:32.662Z,13.90
2022-12-23T12:03:28.093Z,13.90
2022-12-23T12:04:27.954Z,13.30
2022-12-23T12:05:27.962Z,12.70
2022-12-23T12:06:28.025Z,13.80
2022-12-23T12:07:27.919Z,13.70
2022-12-23T12:08:27.961Z,13.80
2022-12-23T12:09:27.919Z,13.70
2022-12-23T12:10:27.918Z,13.50
2022-12-23T12:11:27.935Z,12.80
2022-12-23T12:12:27.882Z,13.20
2022-12-23T12:13:27.881Z,14.10
2022-12-23T12:14:27.902Z,13.00
2022-12-23T12:15:27.831Z,13.50
2022-12-23T12:16:27.884Z,12.90
2022-12-23T12:17:27.813Z,13.10
2022-12-23T12:18:27.824Z,13.00
2022-12-23T12:19:27.802Z,12.60
2022-12-23T12:20:27.836Z,13.40
2022-12-23T12:21:27.811Z,12.90
2022-12-23T12:22:27.780Z,13.90
2022-12-23T12:23:27.762Z,12.90
2022-12-23T12:24:27.774Z,13.70
2022-12-23T12:25:27.779Z,14.00
2022-12-23T12:26:27.745Z,13.50
2022-12-23T12:27:27.780Z,14.20
2022-12-23T12:28:27.774Z,14.20
2022-12-23T12:29:27.752Z,14.20
2022-12-23T12:30:27.751Z,13.80
2022-12-23T12:31:27.765Z,13.50
2022-12-23T12:32:27.721Z,15.60
2022-12-23T12:33:27.746Z,14.70
2022-12-23T12:34:27.693Z,14.90
2022-12-23T12:35:27.631Z,15.40
2022-12-23T12:36:27.628Z,15.80
2022-12-23T12:37:27.666Z,16.50
2022-12-23T12:38:27.609Z,16.00
2022-12-23T12:39:27.591Z,15.10
2022-12-23T12:40:27.631Z,15.20
2022-12-23T12:41:27.910Z,15.10
2022-12-23T12:42:27.563Z,15.80
2022-12-23T12:43:27.542Z,16.00
2022-12-23T12:44:27.542Z,16.00
2022-12-23T12:45:27.596Z,16.30
2022-12-23T12:46:27.579Z,17.80
2022-12-23T12:47:52.578Z,16.30
2022-12-23T12:48:28.561Z,16.00
2022-12-23T12:49:27.469Z,16.00
2022-12-23T12:50:27.496Z,15.30
2022-12-23T12:51:27.449Z,15.90
2022-12-23T12:52:27.456Z,15.90
2022-12-23T12:53:27.427Z,15.80
2022-12-23T12:54:27.741Z,15.60
2022-12-23T12:55:27.408Z,17.00
2022-12-23T12:56:27.408Z,18.10
2022-12-23T12:57:27.563Z,16.10
2022-12-23T12:58:27.385Z,16.10